createdAt,value
2022-11-17T00:00:42.020Z,3.65
2022-11-17T00:03:13.050Z,3.67
2022-11-17T00:05:39.703Z,3.88
2022-11-17T00:08:06.348Z,8.43
2022-11-17T00:10:32.989Z,3.70
2022-11-17T00:13:18.197Z,2.88
2022-11-17T00:15:44.859Z,5.38
2022-11-17T00:18:30.482Z,4.32
2022-11-17T00:21:15.636Z,3.67
2022-11-17T00:23:48.453Z,4.97
2022-11-17T00:26:17.122Z,4.43
2022-11-17T00:28:43.773Z,5.07
2022-11-17T00:31:33.871Z,5.15
2022-11-17T00:34:07.092Z,5.60
2022-11-17T00:36:46.059Z,4.07
2022-11-17T00:39:14.702Z,4.22
2022-11-17T00:41:41.402Z,5.53
2022-11-17T00:44:09.048Z,3.58
2022-11-17T00:46:37.337Z,5.45
2022-11-17T00:49:05.388Z,4.28
2022-11-17T00:51:32.620Z,4.78
2022-11-17T00:53:59.393Z,4.95
2022-11-17T00:56:27.077Z,3.97
2022-11-17T00:58:54.107Z,6.22
2022-11-17T01:01:21.191Z,3.75
2022-11-17T01:03:48.380Z,3.70
2022-11-17T01:06:17.434Z,4.05
2022-11-17T01:08:44.641Z,4.55
2022-11-17T01:11:17.093Z,4.30
2022-11-17T01:13:45.024Z,3.72
2022-11-17T01:16:17.830Z,4.85
2022-11-17T01:18:46.720Z,4.60
2022-11-17T01:21:18.334Z,5.15
2022-11-17T01:23:46.022Z,5.05
2022-11-17T01:26:16.101Z,4.40
2022-11-17T01:28:43.235Z,5.13
2022-11-17T01:31:15.916Z,5.30
2022-11-17T01:33:43.015Z,5.72
2022-11-17T01:36:18.193Z,5.65
2022-11-17T01:38:45.240Z,4.35
2022-11-17T01:41:22.051Z,5.32
2022-11-17T01:43:55.137Z,5.13
2022-11-17T01:46:27.393Z,7.35
2022-11-17T01:49:21.415Z,4.88
2022-11-17T01:51:57.610Z,6.50
2022-11-17T01:54:28.756Z,6.38
2022-11-17T01:56:59.918Z,5.32
2022-11-17T01:59:33.977Z,6.03
2022-11-17T02:02:00.795Z,4.93
2022-11-17T02:04:32.160Z,4.90
2022-11-17T02:07:09.998Z,6.40
2022-11-17T02:09:40.654Z,5.13
2022-11-17T02:12:10.703Z,5.78
2022-11-17T02:14:39.064Z,5.25
2022-11-17T02:17:13.271Z,5.35
2022-11-17T02:19:44.207Z,6.63
2022-11-17T02:22:40.753Z,6.15
2022-11-17T02:25:30.610Z,7.10
2022-11-17T02:28:08.262Z,5.15
2022-11-17T02:30:46.058Z,7.18
2022-11-17T02:33:18.452Z,4.95
2022-11-17T02:36:00.965Z,5.93
2022-11-17T02:38:57.319Z,8.13
2022-11-17T02:41:35.060Z,5.32
2022-11-17T02:44:08.424Z,5.65
2022-11-17T02:46:57.922Z,5.13
2022-11-17T02:49:29.449Z,6.10
2022-11-17T02:51:58.697Z,5.95
2022-11-17T02:54:28.964Z,5.68
2022-11-17T02:56:55.585Z,6.25
2022-11-17T02:59:28.212Z,6.90
2022-11-17T03:02:28.763Z,6.82
2022-11-17T03:05:01.394Z,5.80
2022-11-17T03:07:42.944Z,7.32
2022-11-17T03:10:17.088Z,6.93
2022-11-17T03:13:01.467Z,6.85
2022-11-17T03:15:59.533Z,5.30
2022-11-17T03:18:44.164Z,6.10
2022-11-17T03:21:14.829Z,5.65
2022-11-17T03:23:41.433Z,6.20
2022-11-17T03:26:12.112Z,6.00
2022-11-17T03:28:39.851Z,8.27
2022-11-17T03:31:09.253Z,5.43
2022-11-17T03:33:39.209Z,6.35
2022-11-17T03:36:16.321Z,6.50
2022-11-17T03:38:51.808Z,5.13
2022-11-17T03:41:20.821Z,5.80
2022-11-17T03:43:51.794Z,5.82
2022-11-17T03:46:21.416Z,6.95
2022-11-17T03:49:18.437Z,5.97
2022-11-17T03:51:45.141Z,5.88
2022-11-17T03:54:12.952Z,7.32
2022-11-17T03:57:01.965Z,6.03
2022-11-17T03:59:53.666Z,6.03
2022-11-17T04:02:21.786Z,6.65
2022-11-17T04:05:06.962Z,7.10
2022-11-17T04:07:40.232Z,8.15
2022-11-17T04:10:10.373Z,5.75
2022-11-17T04:12:56.436Z,5.70
2022-11-17T04:15:52.828Z,7.20
2022-11-17T04:18:20.687Z,6.22
2022-11-17T04:20:55.357Z,6.72
2022-11-17T04:23:23.003Z,6.63
2022-11-17T04:26:10.855Z,6.22
2022-11-17T04:28:41.657Z,6.32
2022-11-17T04:31:20.464Z,7.50
2022-11-17T04:34:06.406Z,6.53
2022-11-17T04:36:37.805Z,7.20
2022-11-17T04:39:04.577Z,6.68
2022-11-17T04:41:49.845Z,6.10
2022-11-17T04:44:17.651Z,7.32
2022-11-17T04:46:45.914Z,7.75
2022-11-17T04:49:13.758Z,8.02
2022-11-17T04:51:41.322Z,8.55
2022-11-17T04:54:09.445Z,6.30
2022-11-17T04:56:36.771Z,8.68
2022-11-17T04:59:04.235Z,8.02
2022-11-17T05:01:31.925Z,6.90
2022-11-17T05:04:00.973Z,7.22
2022-11-17T05:06:37.726Z,8.13
2022-11-17T05:09:12.676Z,8.25
2022-11-17T05:11:58.266Z,8.02
2022-11-17T05:14:26.527Z,7.53
2022-11-17T05:17:10.362Z,7.38
2022-11-17T05:19:44.797Z,7.30
2022-11-17T05:22:34.865Z,7.97
2022-11-17T05:25:01.555Z,8.23
2022-11-17T05:27:28.385Z,9.23
2022-11-17T05:29:55.016Z,8.00
2022-11-17T05:32:21.676Z,7.88
2022-11-17T05:34:48.288Z,8.23
2022-11-17T05:37:15.143Z,8.82
2022-11-17T05:39:41.909Z,8.50
2022-11-17T05:42:08.557Z,7.72
2022-11-17T05:44:35.211Z,7.13
2022-11-17T05:47:01.836Z,7.15
2022-11-17T05:49:28.423Z,7.43
2022-11-17T05:51:55.079Z,11.82
2022-11-17T05:54:21.804Z,10.73
2022-11-17T05:57:06.404Z,7.57
2022-11-17T05:59:42.686Z,7.22
2022-11-17T06:02:18.047Z,8.82
2022-11-17T06:04:46.252Z,12.00
2022-11-17T06:07:13.000Z,8.88
2022-11-17T06:09:41.927Z,12.57
2022-11-17T06:12:08.828Z,8.20
2022-11-17T06:14:35.705Z,8.20
2022-11-17T06:17:07.583Z,9.38
2022-11-17T06:19:41.993Z,11.00
2022-11-17T06:22:12.761Z,9.70
2022-11-17T06:24:43.309Z,10.25
2022-11-17T06:27:11.838Z,10.10
2022-11-17T06:29:43.875Z,8.77
2022-11-17T06:32:15.703Z,9.35
2022-11-17T06:34:48.034Z,10.43
2022-11-17T06:37:17.176Z,10.98
2022-11-17T06:39:43.777Z,10.07
2022-11-17T06:42:10.309Z,10.82
2022-11-17T06:44:36.938Z,10.65
2022-11-17T06:47:03.748Z,9.02
2022-11-17T06:49:30.371Z,9.50
2022-11-17T06:51:56.939Z,9.73
2022-11-17T06:54:23.539Z,9.98
2022-11-17T06:56:51.438Z,9.40
2022-11-17T06:59:18.113Z,7.95
2022-11-17T07:01:44.654Z,10.63
2022-11-17T07:04:11.217Z,8.88
2022-11-17T07:06:38.036Z,9.88
2022-11-17T07:09:05.408Z,8.85
2022-11-17T07:11:34.463Z,10.02
2022-11-17T07:14:01.056Z,9.93
2022-11-17T07:16:29.141Z,10.98
2022-11-17T07:18:55.763Z,8.88
2022-11-17T07:21:22.431Z,10.68
2022-11-17T07:23:49.022Z,8.90
2022-11-17T07:26:15.617Z,9.85
2022-11-17T07:28:42.203Z,10.80
2022-11-17T07:31:09.445Z,11.63
2022-11-17T07:33:36.981Z,11.07
2022-11-17T07:36:12.443Z,9.45
2022-11-17T07:38:40.201Z,9.60
2022-11-17T07:41:08.783Z,9.43
2022-11-17T07:43:36.340Z,8.60
2022-11-17T07:46:07.434Z,10.45
2022-11-17T07:48:34.733Z,10.90
2022-11-17T07:51:03.304Z,9.82
2022-11-17T07:53:32.400Z,8.93
2022-11-17T07:56:04.056Z,9.30
2022-11-17T07:58:30.881Z,10.38
2022-11-17T08:00:57.664Z,10.00
2022-11-17T08:03:24.611Z,9.10
2022-11-17T08:05:51.230Z,11.50
2022-11-17T08:08:17.869Z,11.23
2022-11-17T08:10:44.496Z,9.43
2022-11-17T08:13:11.769Z,10.80
2022-11-17T08:15:38.493Z,10.70
2022-11-17T08:18:06.172Z,10.00
2022-11-17T08:20:32.789Z,10.95
2022-11-17T08:22:59.363Z,11.20
2022-11-17T08:25:27.427Z,11.38
2022-11-17T08:27:55.767Z,11.38
2022-11-17T08:30:22.976Z,12.63
2022-11-17T08:32:52.142Z,10.85
2022-11-17T08:35:20.718Z,12.35
2022-11-17T08:37:47.434Z,11.73
2022-11-17T08:40:15.849Z,12.15
2022-11-17T08:42:42.440Z,9.63
2022-11-17T08:45:10.601Z,11.88
2022-11-17T08:47:37.712Z,11.07
2022-11-17T08:50:06.006Z,10.93
2022-11-17T08:52:32.802Z,10.40
2022-11-17T08:54:59.509Z,11.85
2022-11-17T08:57:26.201Z,9.57
2022-11-17T08:59:52.859Z,9.65
2022-11-17T09:02:19.456Z,11.77
2022-11-17T09:04:46.756Z,11.20
2022-11-17T09:07:13.802Z,10.88
2022-11-17T09:09:40.614Z,14.10
2022-11-17T09:12:07.696Z,10.75
2022-11-17T09:14:34.360Z,10.80
2022-11-17T09:17:01.099Z,11.85
2022-11-17T09:19:27.737Z,10.57
2022-11-17T09:21:54.403Z,10.50
2022-11-17T09:24:21.006Z,10.68
2022-11-17T09:26:47.632Z,12.50
2022-11-17T09:29:14.337Z,12.07
2022-11-17T09:31:41.044Z,12.63
2022-11-17T09:34:08.090Z,12.52
2022-11-17T09:36:35.067Z,11.40
2022-11-17T09:39:01.722Z,12.30
2022-11-17T09:41:40.870Z,11.10
2022-11-17T09:44:32.180Z,13.00
2022-11-17T09:47:23.590Z,11.77
2022-11-17T09:50:28.713Z,14.25
2022-11-17T09:53:15.008Z,11.93
2022-11-17T09:55:45.437Z,11.73
2022-11-17T09:58:26.866Z,11.80
2022-11-17T10:00:54.395Z,14.07
2022-11-17T10:03:30.732Z,11.70
2022-11-17T10:05:59.518Z,11.02
2022-11-17T10:08:42.896Z,11.38
2022-11-17T10:11:31.828Z,10.80
2022-11-17T10:14:03.797Z,12.93
2022-11-17T10:16:31.447Z,12.05
2022-11-17T10:18:58.317Z,12.45
2022-11-17T10:21:30.340Z,12.57
2022-11-17T10:23:59.177Z,12.32
2022-11-17T10:26:26.457Z,12.88
2022-11-17T10:29:12.440Z,14.73
2022-11-17T10:31:45.341Z,14.15
2022-11-17T10:34:31.896Z,12.30
2022-11-17T10:37:23.043Z,13.38
2022-11-17T10:39:49.768Z,12.68
2022-11-17T10:42:28.847Z,14.18
2022-11-17T10:45:00.373Z,13.82
2022-11-17T10:47:40.473Z,13.52
2022-11-17T10:50:25.909Z,13.85
2022-11-17T10:52:54.536Z,12.30
2022-11-17T10:55:27.569Z,14.32
2022-11-17T10:58:19.677Z,12.23
2022-11-17T11:00:56.739Z,14.30
2022-11-17T11:03:28.092Z,12.15
2022-11-17T11:06:02.131Z,13.98
2022-11-17T11:08:55.328Z,14.00
2022-11-17T11:11:42.307Z,14.40
2022-11-17T11:16:47.796Z,13.98
2022-11-17T11:19:17.337Z,15.70
2022-11-17T11:21:58.124Z,13.68
2022-11-17T11:24:52.393Z,13.73
2022-11-17T11:27:54.107Z,17.00
2022-11-17T11:30:20.919Z,13.15
2022-11-17T11:33:23.130Z,13.88
2022-11-17T11:36:05.107Z,13.30
2022-11-17T11:38:34.578Z,14.38
2022-11-17T11:41:39.782Z,12.77
2022-11-17T11:44:18.776Z,12.73
2022-11-17T11:46:54.247Z,14.48
2022-11-17T11:49:29.937Z,18.67
2022-11-17T11:51:57.414Z,14.23
2022-11-17T11:54:51.246Z,14.68
2022-11-17T11:57:25.206Z,12.30
2022-11-17T12:00:04.389Z,15.85
2022-11-17T12:02:55.303Z,13.02
2022-11-17T12:05:32.204Z,14.00
2022-11-17T12:08:18.610Z,13.23
2022-11-17T12:10:48.894Z,17.25
2022-11-17T12:13:18.921Z,14.23
2022-11-17T12:15:45.615Z,13.05
2022-11-17T12:18:18.395Z,16.33
2022-11-17T12:20:52.883Z,14.90
2022-11-17T12:23:53.238Z,14.85
2022-11-17T12:26:26.129Z,14.93
2022-11-17T12:29:21.145Z,15.90
2022-11-17T12:31:49.494Z,14.95
2022-11-17T12:34:21.446Z,15.30
2022-11-17T12:37:15.932Z,14.88
2022-11-17T12:40:03.842Z,18.58
2022-11-17T12:42:32.402Z,16.45
2022-11-17T12:45:06.255Z,19.63
2022-11-17T12:47:37.280Z,17.08
2022-11-17T12:50:19.794Z,22.33
2022-11-17T12:53:18.277Z,16.08
2022-11-17T12:55:57.001Z,17.52
2022-11-17T12:58:36.004Z,18.13
2022-11-17T13:01:16.119Z,19.45
2022-11-17T13:03:47.120Z,16.38
2022-11-17T13:09:06.856Z,19.85
2022-11-17T13:11:34.196Z,20.23
2022-11-17T13:14:17.162Z,20.00
2022-11-17T13:16:51.168Z,19.02
2022-11-17T13:19:30.045Z,18.67
2022-11-17T13:22:01.520Z,19.70
2022-11-17T13:24:31.199Z,17.30
2022-11-17T13:26:59.979Z,17.75
2022-11-17T13:29:26.635Z,17.70
2022-11-17T13:32:24.010Z,18.23
2022-11-17T13:34:56.695Z,19.67
2022-11-17T13:37:30.208Z,19.15
2022-11-17T13:40:19.870Z,17.58
2022-11-17T13:42:47.294Z,18.13
2022-11-17T13:45:15.617Z,19.63
2022-11-17T13:47:48.079Z,18.67
2022-11-17T13:50:26.937Z,17.25
2022-11-17T13:53:26.517Z,19.60
2022-11-17T13:55:53.343Z,18.48
2022-11-17T13:58:27.156Z,18.60
2022-11-17T14:00:57.614Z,19.02
2022-11-17T14:03:33.575Z,19.58
2022-11-17T14:06:05.603Z,18.05
2022-11-17T14:08:34.607Z,20.27
2022-11-17T14:11:10.171Z,19.00
2022-11-17T14:13:44.864Z,20.27
2022-11-17T14:16:27.409Z,19.08
2022-11-17T14:19:00.070Z,17.38
2022-11-17T14:21:27.667Z,15.90
2022-11-17T14:24:23.448Z,19.55
2022-11-17T14:26:50.140Z,17.63
2022-11-17T14:29:17.040Z,18.55
2022-11-17T14:31:43.687Z,18.50
2022-11-17T14:34:10.345Z,17.85
2022-11-17T14:36:39.359Z,17.05
2022-11-17T14:39:18.021Z,16.83
2022-11-17T14:41:47.745Z,15.75
2022-11-17T14:44:14.718Z,18.40
2022-11-17T14:46:41.797Z,15.30
2022-11-17T14:49:09.134Z,17.77
2022-11-17T14:51:36.103Z,16.05
2022-11-17T14:54:04.144Z,17.50
2022-11-17T14:56:30.844Z,16.05
2022-11-17T14:58:59.459Z,16.40
2022-11-17T15:01:31.844Z,18.00
2022-11-17T15:04:15.349Z,17.33
2022-11-17T15:06:48.180Z,16.83
2022-11-17T15:09:17.924Z,14.57
2022-11-17T15:11:44.502Z,15.15
2022-11-17T15:14:11.430Z,16.63
2022-11-17T15:16:38.372Z,15.40
2022-11-17T15:19:06.737Z,15.25
2022-11-17T15:21:33.751Z,14.07
2022-11-17T15:24:01.937Z,17.13
2022-11-17T15:26:28.567Z,14.25
2022-11-17T15:28:57.787Z,16.23
2022-11-17T15:31:24.551Z,16.98
2022-11-17T15:33:51.275Z,16.20
2022-11-17T15:36:21.399Z,14.02
2022-11-17T15:38:48.100Z,13.18
2022-11-17T15:41:15.692Z,17.65
2022-11-17T15:43:43.857Z,12.98
2022-11-17T15:46:12.875Z,12.30
2022-11-17T15:48:42.920Z,12.63
2022-11-17T15:51:12.121Z,14.13
2022-11-17T15:53:39.508Z,13.40
2022-11-17T15:56:12.912Z,13.23
2022-11-17T15:58:41.241Z,11.75
2022-11-17T16:01:16.459Z,13.82
2022-11-17T16:03:45.162Z,12.43
2022-11-17T16:06:13.074Z,12.00
2022-11-17T16:08:39.745Z,13.40
2022-11-17T16:11:07.321Z,12.05
2022-11-17T16:13:34.041Z,15.95
2022-11-17T16:16:00.853Z,13.70
2022-11-17T16:18:27.562Z,13.48
2022-11-17T16:20:54.770Z,13.10
2022-11-17T16:23:22.106Z,11.95
2022-11-17T16:25:49.005Z,11.20
2022-11-17T16:28:17.104Z,12.52
2022-11-17T16:30:43.802Z,14.55
2022-11-17T16:33:14.993Z,11.77
2022-11-17T16:35:41.660Z,11.43
2022-11-17T16:38:15.956Z,11.52
2022-11-17T16:40:43.706Z,10.27
2022-11-17T16:43:12.330Z,12.30
2022-11-17T16:45:44.686Z,12.90
2022-11-17T16:48:12.724Z,11.75
2022-11-17T16:50:41.364Z,10.35
2022-11-17T16:53:08.606Z,11.25
2022-11-17T16:55:36.132Z,12.43
2022-11-17T16:58:04.506Z,11.27
2022-11-17T17:00:31.578Z,11.75
2022-11-17T17:02:58.322Z,13.65
2022-11-17T17:05:25.702Z,11.77
2022-11-17T17:07:52.349Z,14.35
2022-11-17T17:10:19.119Z,10.45
2022-11-17T17:12:45.717Z,12.15
2022-11-17T17:15:14.959Z,10.07
2022-11-17T17:17:41.566Z,14.15
2022-11-17T17:20:09.893Z,11.55
2022-11-17T17:22:36.497Z,11.27
2022-11-17T17:25:03.725Z,14.80
2022-11-17T17:27:31.272Z,11.30
2022-11-17T17:29:57.996Z,11.27
2022-11-17T17:32:24.619Z,13.65
2022-11-17T17:34:51.606Z,12.07
2022-11-17T17:37:18.254Z,11.18
2022-11-17T17:39:45.051Z,11.18
2022-11-17T17:42:13.264Z,11.75
2022-11-17T17:44:40.027Z,13.50
2022-11-17T17:47:06.661Z,13.43
2022-11-17T17:49:33.265Z,14.07
2022-11-17T17:51:59.898Z,11.50
2022-11-17T17:54:26.477Z,12.93
2022-11-17T17:56:53.180Z,12.85
2022-11-17T17:59:20.137Z,12.23
2022-11-17T18:01:48.033Z,11.18
2022-11-17T18:04:16.583Z,10.80
2022-11-17T18:06:47.140Z,13.55
2022-11-17T18:09:15.564Z,11.27
2022-11-17T18:11:46.001Z,14.27
2022-11-17T18:14:13.475Z,13.95
2022-11-17T18:16:40.787Z,12.10
2022-11-17T18:19:09.082Z,14.45
2022-11-17T18:21:36.333Z,12.57
2022-11-17T18:24:04.226Z,13.00
2022-11-17T18:26:35.970Z,11.77
2022-11-17T18:29:05.443Z,11.48
2022-11-17T18:31:35.052Z,12.90
2022-11-17T18:34:04.970Z,12.65
2022-11-17T18:36:32.296Z,12.27
2022-11-17T18:38:59.040Z,13.93
2022-11-17T18:41:26.770Z,12.07
2022-11-17T18:43:54.999Z,10.85
2022-11-17T18:46:23.558Z,13.13
2022-11-17T18:48:54.220Z,11.50
2022-11-17T18:51:23.250Z,12.80
2022-11-17T18:53:51.803Z,13.40
2022-11-17T18:56:21.648Z,12.68
2022-11-17T18:58:48.599Z,12.93
2022-11-17T19:01:23.640Z,10.77
2022-11-17T19:03:55.023Z,12.57
2022-11-17T19:06:24.542Z,12.55
2022-11-17T19:08:52.360Z,10.75
2022-11-17T19:11:20.712Z,11.70
2022-11-17T19:13:47.589Z,11.45
2022-11-17T19:16:17.294Z,10.13
2022-11-17T19:18:45.369Z,10.18
2022-11-17T19:21:14.870Z,10.77
2022-11-17T19:23:48.036Z,13.77
2022-11-17T19:26:23.817Z,12.07
2022-11-17T19:28:50.883Z,10.70
2022-11-17T19:31:19.792Z,11.32
2022-11-17T19:33:47.916Z,12.13
2022-11-17T19:36:22.762Z,14.25
2022-11-17T19:38:54.014Z,12.38
2022-11-17T19:41:23.564Z,12.63
2022-11-17T19:44:01.906Z,11.95
2022-11-17T19:46:30.049Z,10.70
2022-11-17T19:48:57.235Z,12.05
2022-11-17T19:51:29.546Z,12.95
2022-11-17T19:54:00.465Z,11.98
2022-11-17T19:56:27.822Z,12.07
2022-11-17T19:58:55.516Z,14.70
2022-11-17T20:01:27.613Z,13.10
2022-11-17T20:03:55.229Z,14.75
2022-11-17T20:06:27.097Z,13.38
2022-11-17T20:08:55.120Z,11.10
2022-11-17T20:11:24.267Z,11.23
2022-11-17T20:13:51.255Z,12.90
2022-11-17T20:16:21.285Z,12.90
2022-11-17T20:18:52.571Z,13.27
2022-11-17T20:21:19.618Z,11.93
2022-11-17T20:23:46.776Z,12.85
2022-11-17T20:26:19.419Z,12.68
2022-11-17T20:28:46.545Z,13.75
2022-11-17T20:31:33.408Z,14.65
2022-11-17T20:34:01.505Z,11.63
2022-11-17T20:36:30.093Z,13.77
2022-11-17T20:38:59.095Z,14.50
2022-11-17T20:41:26.118Z,13.18
2022-11-17T20:43:57.001Z,13.07
2022-11-17T20:46:24.816Z,13.55
2022-11-17T20:48:51.858Z,16.23
2022-11-17T20:51:23.390Z,14.20
2022-11-17T20:53:50.455Z,14.45
2022-11-17T20:56:17.740Z,14.98
2022-11-17T20:58:44.973Z,13.38
2022-11-17T21:01:15.911Z,14.55
2022-11-17T21:03:43.099Z,14.73
2022-11-17T21:06:10.356Z,15.13
2022-11-17T21:08:39.899Z,17.02
2022-11-17T21:11:32.221Z,15.02
2022-11-17T21:13:59.293Z,14.52
2022-11-17T21:16:25.938Z,15.93
2022-11-17T21:18:52.727Z,16.02
2022-11-17T21:21:19.364Z,18.20
2022-11-17T21:23:46.145Z,16.85
2022-11-17T21:26:17.132Z,15.82
2022-11-17T21:28:44.121Z,16.20
2022-11-17T21:31:13.678Z,18.42
2022-11-17T21:33:41.011Z,17.52
2022-11-17T21:36:13.297Z,19.63
2022-11-17T21:38:40.247Z,17.50
2022-11-17T21:41:10.787Z,16.60
2022-11-17T21:43:38.912Z,18.48
2022-11-17T21:46:08.217Z,16.50
2022-11-17T21:48:36.466Z,19.90
2022-11-17T21:51:04.517Z,16.38
2022-11-17T21:53:31.214Z,20.40
2022-11-17T21:56:05.443Z,18.90
2022-11-17T21:58:32.487Z,20.60
2022-11-17T22:00:59.607Z,19.02
2022-11-17T22:03:26.288Z,18.27
2022-11-17T22:05:55.735Z,17.75
2022-11-17T22:08:24.738Z,17.88
2022-11-17T22:10:51.315Z,18.65
2022-11-17T22:13:17.905Z,18.23
2022-11-17T22:15:44.530Z,17.52
2022-11-17T22:18:11.139Z,19.95
2022-11-17T22:20:37.781Z,18.63
2022-11-17T22:23:04.499Z,19.17
2022-11-17T22:25:44.626Z,20.83
2022-11-17T22:28:12.212Z,18.52
2022-11-17T22:30:38.962Z,17.95
2022-11-17T22:33:05.594Z,17.83
2022-11-17T22:35:32.221Z,19.27
2022-11-17T22:37:58.814Z,17.83
2022-11-17T22:40:25.365Z,19.55
2022-11-17T22:42:55.138Z,17.95
2022-11-17T22:45:33.556Z,19.50
2022-11-17T22:48:01.870Z,16.25
2022-11-17T22:50:28.466Z,18.35
2022-11-17T22:52:55.353Z,17.30
2022-11-17T22:55:22.178Z,17.42
2022-11-17T22:57:50.604Z,16.38
2022-11-17T23:00:17.315Z,18.98
2022-11-17T23:02:43.934Z,17.60
2022-11-17T23:05:10.575Z,18.85
2022-11-17T23:07:37.210Z,18.45
2022-11-17T23:10:04.311Z,17.52
2022-11-17T23:12:30.912Z,17.17
2022-11-17T23:14:57.521Z,16.88
2022-11-17T23:17:24.696Z,18.02
2022-11-17T23:19:51.286Z,16.33
2022-11-17T23:22:17.899Z,19.05
2022-11-17T23:24:44.500Z,17.70
2022-11-17T23:27:11.293Z,16.17
2022-11-17T23:29:37.936Z,18.27
2022-11-17T23:32:04.736Z,17.90
2022-11-17T23:34:31.460Z,16.98
2022-11-17T23:37:03.394Z,17.83
2022-11-17T23:39:30.549Z,17.75
2022-11-17T23:41:57.169Z,17.42
2022-11-17T23:44:23.787Z,18.27
2022-11-17T23:46:50.381Z,18.70
2022-11-17T23:49:17.189Z,18.13
2022-11-17T23:51:43.962Z,18.67
2022-11-17T23:54:15.790Z,18.00
2022-11-17T23:56:42.558Z,18.52
2022-11-17T23:59:09.840Z,19.77
